Time;durP1;ratioP1;P1;durP2;ratioP2;P2;SDS_P1;SDS_P2;PMS_P1;PMS_P2;Temp;Humidity;BMP_temperature;BMP_pressure;BME280_temperature;BME280_humidity;BME280_pressure;Samples;Min_cycle;Max_cycle;Signal;HPM_P1;HPM_P2
2023/03/22 00:00:54;;;;;;;16.15;2.33;;;10.00;99.90;;;;;;4994063;28;20060;-75
2023/03/22 00:03:21;;;;;;;19.30;2.47;;;10.00;99.90;;;;;;4994496;28;20033;-75
2023/03/22 00:05:46;;;;;;;19.65;2.88;;;10.00;99.90;;;;;;4994809;28;20022;-75
2023/03/22 00:08:12;;;;;;;20.63;2.92;;;10.00;99.90;;;;;;5005267;28;20036;-75
2023/03/22 00:10:40;;;;;;;10.60;2.75;;;10.00;99.90;;;;;;5010005;28;20025;-75
2023/03/22 00:13:08;;;;;;;17.50;3.10;;;10.00;99.90;;;;;;5003638;28;20384;-75
2023/03/22 00:15:34;;;;;;;17.67;3.05;;;10.00;99.90;;;;;;4998182;28;20026;-75
2023/03/22 00:18:00;;;;;;;15.60;2.83;;;10.10;99.90;;;;;;4993838;28;20466;-75
2023/03/22 00:20:29;;;;;;;17.35;3.30;;;10.00;99.90;;;;;;5006615;28;20026;-75
2023/03/22 00:22:56;;;;;;;15.60;3.70;;;10.00;99.90;;;;;;5008689;28;20096;-75
2023/03/22 00:25:22;;;;;;;18.70;3.67;;;10.00;99.90;;;;;;5006136;28;20045;-75
2023/03/22 00:27:47;;;;;;;19.48;3.78;;;9.90;99.90;;;;;;4979358;28;20030;-75
2023/03/22 00:30:14;;;;;;;14.35;3.92;;;9.90;99.90;;;;;;4992756;28;20026;-75
2023/03/22 00:32:41;;;;;;;17.73;4.50;;;9.80;99.90;;;;;;4999378;28;20030;-75
2023/03/22 00:35:08;;;;;;;14.82;3.72;;;9.80;99.90;;;;;;5006446;28;20026;-75
2023/03/22 00:37:37;;;;;;;22.13;3.78;;;9.70;99.90;;;;;;4994397;28;20019;-75
2023/03/22 00:40:07;;;;;;;15.73;3.60;;;9.70;99.90;;;;;;4996937;28;20069;-75
2023/03/22 00:42:34;;;;;;;16.80;3.85;;;9.70;99.90;;;;;;4993470;28;20340;-75
2023/03/22 00:45:00;;;;;;;15.23;3.45;;;9.60;99.90;;;;;;5004878;28;20068;-75
2023/03/22 00:47:25;;;;;;;19.77;3.58;;;9.60;99.90;;;;;;4993790;28;20054;-75
2023/03/22 00:49:51;;;;;;;14.10;3.10;;;9.60;99.90;;;;;;5007294;28;20049;-75
2023/03/22 00:52:16;;;;;;;22.35;3.85;;;9.60;99.90;;;;;;4994223;28;20084;-75
2023/03/22 00:54:42;;;;;;;15.07;3.72;;;9.70;99.90;;;;;;5005340;28;20026;-75
2023/03/22 00:57:08;;;;;;;14.23;3.47;;;9.70;99.90;;;;;;5008776;28;20060;-75
2023/03/22 00:59:37;;;;;;;12.75;3.45;;;9.60;99.90;;;;;;5004106;28;20029;-75
2023/03/22 01:02:04;;;;;;;17.48;4.22;;;9.70;99.90;;;;;;4998390;28;20141;-75
2023/03/22 01:04:30;;;;;;;13.38;3.53;;;9.70;99.90;;;;;;5005601;28;20026;-75
2023/03/22 01:07:00;;;;;;;18.67;3.80;;;9.70;99.90;;;;;;4994035;28;20080;-75
2023/03/22 01:09:30;;;;;;;14.45;3.55;;;9.70;99.90;;;;;;5005357;28;20026;-76
2023/03/22 01:12:00;;;;;;;18.85;3.38;;;9.70;99.90;;;;;;5007136;28;20535;-76
2023/03/22 01:14:27;;;;;;;16.17;3.53;;;9.70;99.90;;;;;;5007806;28;20038;-75
2023/03/22 01:16:56;;;;;;;17.80;3.40;;;9.70;99.90;;;;;;4994490;28;20022;-75
2023/03/22 01:19:22;;;;;;;15.52;3.72;;;9.70;99.90;;;;;;4999292;28;20048;-76
2023/03/22 01:21:49;;;;;;;13.85;2.97;;;9.80;99.90;;;;;;5013650;28;20489;-76
2023/03/22 01:24:15;;;;;;;13.93;3.30;;;9.80;99.90;;;;;;4999266;28;20493;-76
2023/03/22 01:26:41;;;;;;;12.65;2.97;;;9.80;99.90;;;;;;5013706;28;20045;-76
2023/03/22 01:29:07;;;;;;;22.40;3.40;;;9.80;99.90;;;;;;5012864;28;20500;-76
2023/03/22 01:31:32;;;;;;;15.40;3.28;;;9.80;99.90;;;;;;5007131;28;20026;-76
2023/03/22 01:33:58;;;;;;;14.30;2.90;;;9.80;99.90;;;;;;4988094;28;20366;-76
2023/03/22 01:36:23;;;;;;;14.32;2.85;;;9.80;99.90;;;;;;4996178;28;20029;-75
2023/03/22 01:38:49;;;;;;;13.73;2.90;;;9.80;99.90;;;;;;5001275;28;20022;-74
2023/03/22 01:41:15;;;;;;;16.27;3.20;;;9.80;99.90;;;;;;5013796;28;20110;-75
2023/03/22 01:43:41;;;;;;;14.75;2.80;;;9.80;99.90;;;;;;5006728;28;20062;-75
2023/03/22 01:46:07;;;;;;;12.57;3.03;;;9.90;99.90;;;;;;4993255;28;20057;-74
2023/03/22 01:48:44;;;;;;;13.18;3.25;;;9.90;99.90;;;;;;4995283;28;20145;-75
2023/03/22 01:51:21;;;;;;;11.23;2.83;;;9.90;99.90;;;;;;5001060;28;20026;-75
2023/03/22 01:53:54;;;;;;;9.52;2.95;;;9.90;99.90;;;;;;4997144;28;20022;-75
2023/03/22 01:56:24;;;;;;;12.85;3.13;;;9.90;99.90;;;;;;5012903;28;20022;-75
2023/03/22 01:58:53;;;;;;;21.52;4.22;;;10.00;99.90;;;;;;5008663;28;20057;-75
2023/03/22 02:01:19;;;;;;;14.40;3.33;;;10.00;99.90;;;;;;5003602;28;20028;-75
2023/03/22 02:04:18;;;;;;;12.25;3.33;;;10.00;99.90;;;;;;5011515;28;20462;-76
2023/03/22 02:06:45;;;;;;;18.73;4.00;;;10.10;99.90;;;;;;4952627;28;20053;-76
2023/03/22 02:09:12;;;;;;;10.07;4.13;;;10.10;99.90;;;;;;5011155;28;20145;-76
2023/03/22 02:11:45;;;;;;;12.10;4.20;;;10.10;99.90;;;;;;5011901;28;20084;-76
2023/03/22 02:14:24;;;;;;;15.02;4.03;;;10.10;99.90;;;;;;4997203;28;20502;-76
2023/03/22 02:17:01;;;;;;;18.35;4.70;;;10.20;99.90;;;;;;5012470;28;20048;-75
2023/03/22 02:19:41;;;;;;;18.75;5.53;;;10.20;99.90;;;;;;4997698;28;20033;-74
2023/03/22 02:22:37;;;;;;;15.13;4.78;;;10.20;99.90;;;;;;4998951;28;20018;-74
2023/03/22 02:25:26;;;;;;;20.48;5.50;;;10.20;99.90;;;;;;5012478;28;20037;-74
2023/03/22 02:27:55;;;;;;;15.25;5.40;;;10.20;99.90;;;;;;4931168;29;20035;-75
2023/03/22 02:30:29;;;;;;;13.63;5.60;;;10.20;99.90;;;;;;4931998;29;20423;-75
2023/03/22 02:33:09;;;;;;;14.43;6.00;;;10.20;99.90;;;;;;4931441;29;20036;-75
2023/03/22 02:36:06;;;;;;;16.00;6.50;;;10.30;99.90;;;;;;4932658;29;20542;-75
2023/03/22 02:39:09;;;;;;;15.60;6.65;;;10.20;99.90;;;;;;4932244;29;20554;-75
2023/03/22 02:41:53;;;;;;;21.52;7.35;;;10.30;99.90;;;;;;4932355;29;20035;-75
2023/03/22 02:44:24;;;;;;;16.33;7.38;;;10.30;99.90;;;;;;4932562;29;20020;-75
2023/03/22 02:47:24;;;;;;;17.40;7.13;;;10.40;99.90;;;;;;4931321;29;20402;-75
2023/03/22 02:50:10;;;;;;;17.27;6.60;;;10.40;99.90;;;;;;4906053;29;20048;-75
2023/03/22 02:52:56;;;;;;;17.77;7.05;;;10.40;99.90;;;;;;4932768;29;20043;-75
2023/03/22 02:55:27;;;;;;;17.35;6.93;;;10.50;99.90;;;;;;4941213;29;20062;-75
2023/03/22 02:58:03;;;;;;;19.25;6.72;;;10.50;99.90;;;;;;4944728;29;20052;-75
2023/03/22 03:00:31;;;;;;;15.05;6.78;;;10.60;99.90;;;;;;4935558;29;20016;-75
2023/03/22 03:03:10;;;;;;;17.33;6.88;;;10.50;99.90;;;;;;4935783;29;20071;-75
2023/03/22 03:05:38;;;;;;;17.95;6.47;;;10.50;99.90;;;;;;4997156;28;20141;-75
2023/03/22 03:08:05;;;;;;;17.10;7.43;;;10.50;99.90;;;;;;4998109;28;20042;-75
2023/03/22 03:10:32;;;;;;;16.67;7.07;;;10.50;99.90;;;;;;4997776;28;20084;-75
2023/03/22 03:12:58;;;;;;;15.60;6.88;;;10.50;99.90;;;;;;5002334;28;20025;-75
2023/03/22 03:15:24;;;;;;;15.77;7.35;;;10.50;99.90;;;;;;5003421;28;20026;-75
2023/03/22 03:18:08;;;;;;;18.52;7.50;;;10.50;99.90;;;;;;4996408;28;20073;-75
2023/03/22 03:21:15;;;;;;;19.77;7.03;;;10.50;99.90;;;;;;4992272;28;20034;-75
2023/03/22 03:23:41;;;;;;;16.10;7.15;;;10.50;99.90;;;;;;4996726;28;20022;-75
2023/03/22 03:26:30;;;;;;;23.50;8.05;;;10.50;99.90;;;;;;5013848;28;20024;-75
2023/03/22 03:29:02;;;;;;;16.55;8.07;;;10.50;99.90;;;;;;5013246;28;20082;-75
2023/03/22 03:31:53;;;;;;;20.02;7.93;;;10.40;99.90;;;;;;4998680;28;20030;-75
2023/03/22 03:34:59;;;;;;;19.75;9.15;;;10.50;99.90;;;;;;5009503;28;20100;-75
2023/03/22 03:37:46;;;;;;;21.67;8.57;;;10.40;99.90;;;;;;5002217;28;20032;-74
2023/03/22 03:40:18;;;;;;;21.02;8.38;;;10.40;99.90;;;;;;4998592;28;20297;-75
2023/03/22 03:42:48;;;;;;;21.15;9.35;;;10.40;99.90;;;;;;5009764;28;20084;-74
2023/03/22 03:45:15;;;;;;;23.13;8.90;;;10.40;99.90;;;;;;5015971;28;20034;-75
2023/03/22 03:47:44;;;;;;;18.58;8.50;;;10.40;99.90;;;;;;5000791;28;20076;-75
2023/03/22 03:50:11;;;;;;;21.00;9.23;;;10.30;99.90;;;;;;4996478;28;20497;-74
2023/03/22 03:52:37;;;;;;;20.27;9.15;;;10.40;99.90;;;;;;4982824;28;20024;-74
2023/03/22 03:55:03;;;;;;;19.23;9.18;;;10.40;99.90;;;;;;5001693;28;20963;-74
2023/03/22 03:57:29;;;;;;;21.65;9.38;;;10.40;99.90;;;;;;5000740;28;20035;-75
2023/03/22 03:59:54;;;;;;;19.25;9.20;;;10.40;99.90;;;;;;5011204;28;20096;-75
2023/03/22 04:02:20;;;;;;;20.40;9.68;;;10.40;99.90;;;;;;5013546;28;20018;-75
2023/03/22 04:04:45;;;;;;;21.92;9.25;;;10.40;99.90;;;;;;5006429;28;20026;-75
2023/03/22 04:07:11;;;;;;;22.55;9.50;;;10.40;99.90;;;;;;5001459;28;20030;-75
2023/03/22 04:09:38;;;;;;;19.55;9.18;;;10.40;99.90;;;;;;5014185;28;20061;-75
2023/03/22 04:12:04;;;;;;;20.25;9.18;;;10.40;99.90;;;;;;5000163;28;20022;-75
2023/03/22 04:14:29;;;;;;;19.73;9.43;;;10.40;99.90;;;;;;5000887;28;20055;-75
2023/03/22 04:16:55;;;;;;;23.55;9.20;;;10.40;99.90;;;;;;5011636;28;20026;-76
2023/03/22 04:19:21;;;;;;;20.60;9.07;;;10.30;99.90;;;;;;4994532;28;20022;-76
2023/03/22 04:21:47;;;;;;;19.38;8.10;;;10.40;99.90;;;;;;5008432;28;20030;-75
2023/03/22 04:24:13;;;;;;;22.33;8.43;;;10.40;99.90;;;;;;5014200;28;20076;-75
2023/03/22 04:26:40;;;;;;;17.48;8.57;;;10.30;99.90;;;;;;5013220;28;20029;-75
2023/03/22 04:29:06;;;;;;;18.73;8.30;;;10.30;99.90;;;;;;4994170;28;20080;-75
2023/03/22 04:31:32;;;;;;;16.90;7.82;;;10.30;99.90;;;;;;5004855;28;20488;-75
2023/03/22 04:33:59;;;;;;;20.23;8.32;;;10.30;99.90;;;;;;5012549;28;20022;-75
2023/03/22 04:36:29;;;;;;;17.65;7.40;;;10.30;99.90;;;;;;5013640;28;20026;-76
2023/03/22 04:38:55;;;;;;;22.00;7.95;;;10.30;99.90;;;;;;4992471;28;20497;-75
2023/03/22 04:41:21;;;;;;;17.42;7.30;;;10.30;99.90;;;;;;4999973;28;20022;-75
2023/03/22 04:43:49;;;;;;;16.17;6.72;;;10.30;99.90;;;;;;5000741;28;20073;-75
2023/03/22 04:46:15;;;;;;;25.25;7.55;;;10.30;99.90;;;;;;4993821;28;20101;-75
2023/03/22 04:48:41;;;;;;;19.00;6.70;;;10.30;99.90;;;;;;5009105;28;20140;-76
2023/03/22 04:51:09;;;;;;;15.13;6.28;;;10.20;99.90;;;;;;5014059;28;20028;-75
2023/03/22 04:53:38;;;;;;;18.90;6.50;;;10.30;99.90;;;;;;5012773;28;20088;-75
2023/03/22 04:56:10;;;;;;;21.10;5.68;;;10.30;99.90;;;;;;4976557;28;20108;-75
2023/03/22 04:58:41;;;;;;;18.40;5.50;;;10.30;99.90;;;;;;5007107;28;20040;-75
2023/03/22 05:01:08;;;;;;;17.05;5.25;;;10.30;99.90;;;;;;5013029;28;20022;-75
2023/03/22 05:03:35;;;;;;;16.60;5.78;;;10.30;99.90;;;;;;5013544;28;20104;-75
2023/03/22 05:06:02;;;;;;;20.73;5.47;;;10.40;99.90;;;;;;5012073;28;20026;-76
2023/03/22 05:08:29;;;;;;;18.50;4.78;;;10.40;99.90;;;;;;5007878;28;20037;-75
2023/03/22 05:10:57;;;;;;;14.75;4.32;;;10.40;99.90;;;;;;5006192;28;20045;-75
2023/03/22 05:13:25;;;;;;;16.20;4.32;;;10.40;99.90;;;;;;5010314;28;20018;-75
2023/03/22 05:15:51;;;;;;;20.67;4.45;;;10.40;99.90;;;;;;5004548;28;20034;-76
2023/03/22 05:18:23;;;;;;;13.93;3.72;;;10.40;99.90;;;;;;4994562;28;20030;-75
2023/03/22 05:20:49;;;;;;;18.88;4.30;;;10.40;99.90;;;;;;4998503;28;20049;-75
2023/03/22 05:23:18;;;;;;;15.95;4.20;;;10.40;99.90;;;;;;5000492;28;20481;-75
2023/03/22 05:25:45;;;;;;;16.67;4.35;;;10.40;99.90;;;;;;5006358;28;20053;-75
2023/03/22 05:28:13;;;;;;;16.27;3.67;;;10.40;99.90;;;;;;4993586;28;20010;-75
2023/03/22 05:30:42;;;;;;;13.32;3.30;;;10.40;99.90;;;;;;4997726;28;20520;-75
2023/03/22 05:33:08;;;;;;;14.75;3.80;;;10.40;99.90;;;;;;5007378;28;20026;-75
2023/03/22 05:35:36;;;;;;;13.85;3.63;;;10.40;99.90;;;;;;4997223;28;20030;-74
2023/03/22 05:38:02;;;;;;;13.77;3.33;;;10.40;99.90;;;;;;5004568;28;20033;-75
2023/03/22 05:40:27;;;;;;;10.30;2.90;;;10.40;99.90;;;;;;4994798;28;20023;-75
2023/03/22 05:42:54;;;;;;;15.00;3.28;;;10.40;99.90;;;;;;5000004;28;20160;-75
2023/03/22 05:45:20;;;;;;;12.32;3.17;;;10.40;99.90;;;;;;5012439;28;20030;-75
2023/03/22 05:47:46;;;;;;;13.10;3.10;;;10.40;99.90;;;;;;5011730;28;20104;-74
2023/03/22 05:50:15;;;;;;;15.27;3.10;;;10.40;99.90;;;;;;5011722;28;20512;-75
2023/03/22 05:52:41;;;;;;;10.55;3.00;;;10.40;99.90;;;;;;4993721;28;20022;-75
2023/03/22 05:55:08;;;;;;;11.15;3.00;;;10.40;99.90;;;;;;5001128;28;20100;-76
2023/03/22 05:57:34;;;;;;;12.95;2.78;;;10.40;99.90;;;;;;4993964;28;20038;-75
2023/03/22 06:00:00;;;;;;;11.00;2.80;;;10.40;99.90;;;;;;4994194;28;20030;-75
2023/03/22 06:02:26;;;;;;;12.02;2.88;;;10.40;99.90;;;;;;4994620;28;20491;-74
2023/03/22 06:04:52;;;;;;;12.40;2.90;;;10.40;99.90;;;;;;4992962;28;20058;-75
2023/03/22 06:07:18;;;;;;;18.25;2.90;;;10.40;99.90;;;;;;5001792;28;20109;-75
2023/03/22 06:09:44;;;;;;;14.20;3.08;;;10.40;99.90;;;;;;5000010;28;20504;-75
2023/03/22 06:12:10;;;;;;;16.10;2.92;;;10.50;99.90;;;;;;5011831;28;20030;-76
2023/03/22 06:14:36;;;;;;;13.07;2.60;;;10.40;99.90;;;;;;5013196;28;20026;-75
2023/03/22 06:17:01;;;;;;;12.95;2.97;;;10.40;99.90;;;;;;5000426;28;20032;-76
2023/03/22 06:19:27;;;;;;;10.43;2.88;;;10.40;99.90;;;;;;5005685;28;20053;-77
2023/03/22 06:21:53;;;;;;;12.13;2.83;;;10.50;99.90;;;;;;4994202;28;20038;-76
2023/03/22 06:24:19;;;;;;;11.85;3.05;;;10.50;99.90;;;;;;4998790;28;20497;-76
2023/03/22 06:26:45;;;;;;;11.63;2.70;;;10.50;99.90;;;;;;5004115;28;20052;-76
2023/03/22 06:29:11;;;;;;;12.68;3.08;;;10.50;99.90;;;;;;5005752;28;20060;-76
2023/03/22 06:31:37;;;;;;;11.15;2.70;;;10.50;99.90;;;;;;5017401;28;20046;-76
2023/03/22 06:34:03;;;;;;;11.18;2.80;;;10.50;99.90;;;;;;5012159;28;20036;-76
2023/03/22 06:36:29;;;;;;;12.35;3.00;;;10.50;99.90;;;;;;4999819;28;20481;-76
2023/03/22 06:38:55;;;;;;;12.50;3.45;;;10.50;99.90;;;;;;5007612;28;20030;-76
2023/03/22 06:41:21;;;;;;;16.73;3.22;;;10.50;99.90;;;;;;5011099;28;20026;-76
2023/03/22 06:43:46;;;;;;;14.50;3.13;;;10.50;99.90;;;;;;4996057;28;20035;-76
2023/03/22 06:46:12;;;;;;;15.38;2.90;;;10.50;99.90;;;;;;5010872;28;20022;-76
2023/03/22 06:48:39;;;;;;;14.13;2.70;;;10.50;99.90;;;;;;4999356;28;20050;-77
2023/03/22 06:51:05;;;;;;;16.67;3.60;;;10.50;99.90;;;;;;4998015;28;20389;-76
2023/03/22 06:53:31;;;;;;;16.35;3.65;;;10.50;99.90;;;;;;5000458;28;20504;-76
2023/03/22 06:55:56;;;;;;;20.48;2.92;;;10.50;99.90;;;;;;5012973;28;20017;-76
2023/03/22 06:58:22;;;;;;;15.40;2.67;;;10.50;99.90;;;;;;5009027;28;20449;-76
2023/03/22 07:00:48;;;;;;;12.65;2.58;;;10.60;99.90;;;;;;5012943;28;20042;-76
2023/03/22 07:03:14;;;;;;;15.85;3.17;;;10.60;99.90;;;;;;5006082;28;20026;-76
2023/03/22 07:05:39;;;;;;;14.52;3.00;;;10.60;99.90;;;;;;5010480;28;20022;-76
2023/03/22 07:08:05;;;;;;;13.85;3.22;;;10.60;99.90;;;;;;5009055;28;20457;-76
2023/03/22 07:10:31;;;;;;;14.68;2.95;;;10.60;99.90;;;;;;5016608;28;20404;-76
2023/03/22 07:12:57;;;;;;;14.00;3.03;;;10.60;99.90;;;;;;5012464;28;20025;-77
2023/03/22 07:15:23;;;;;;;16.27;3.05;;;10.60;99.90;;;;;;5010177;28;20053;-76
2023/03/22 07:17:51;;;;;;;13.82;3.28;;;10.60;99.90;;;;;;5012533;28;20022;-75
2023/03/22 07:20:18;;;;;;;13.35;2.90;;;10.70;99.90;;;;;;5004012;28;20536;-76
2023/03/22 07:22:44;;;;;;;9.13;2.75;;;10.70;99.90;;;;;;5009703;28;20032;-76
2023/03/22 07:25:10;;;;;;;13.68;3.08;;;10.70;99.90;;;;;;5011220;28;20072;-76
2023/03/22 07:27:36;;;;;;;17.25;3.25;;;10.70;99.90;;;;;;5010705;28;20018;-76
2023/03/22 07:30:03;;;;;;;15.60;3.10;;;10.70;99.90;;;;;;5005767;28;20040;-76
2023/03/22 07:32:28;;;;;;;15.05;3.47;;;10.80;99.90;;;;;;5004560;28;20040;-76
2023/03/22 07:34:54;;;;;;;15.27;3.15;;;10.80;99.90;;;;;;5009410;28;20481;-76
2023/03/22 07:37:20;;;;;;;11.27;3.15;;;10.80;99.90;;;;;;5010338;28;20041;-76
2023/03/22 07:39:45;;;;;;;14.25;3.10;;;10.80;99.90;;;;;;5014854;28;20058;-76
2023/03/22 07:42:11;;;;;;;16.35;3.33;;;10.80;99.90;;;;;;5005869;28;20019;-76
2023/03/22 07:44:37;;;;;;;14.77;3.22;;;10.80;99.90;;;;;;4991799;28;20022;-76
2023/03/22 07:47:03;;;;;;;16.58;3.30;;;10.80;99.90;;;;;;5016246;28;20030;-76
2023/03/22 07:49:30;;;;;;;16.40;3.42;;;10.80;99.90;;;;;;4998197;28;20437;-77
2023/03/22 07:51:55;;;;;;;15.43;3.33;;;10.80;99.90;;;;;;5003137;28;20033;-76
2023/03/22 07:54:21;;;;;;;16.08;2.95;;;10.80;99.90;;;;;;5015168;28;20022;-76
2023/03/22 07:56:47;;;;;;;18.85;3.30;;;10.80;99.90;;;;;;4994265;28;20029;-76
2023/03/22 07:59:13;;;;;;;15.00;3.25;;;10.80;99.90;;;;;;5001310;28;20029;-76
2023/03/22 08:01:39;;;;;;;12.40;3.38;;;10.80;99.90;;;;;;5007095;28;20022;-77
2023/03/22 08:04:05;;;;;;;12.60;2.75;;;10.80;99.90;;;;;;5000561;28;20025;-76
2023/03/22 08:06:31;;;;;;;19.50;3.45;;;10.80;99.90;;;;;;5013350;28;20041;-76
2023/03/22 08:08:58;;;;;;;11.43;2.70;;;10.80;99.90;;;;;;5006657;28;20389;-76
2023/03/22 08:11:23;;;;;;;18.45;3.05;;;10.70;99.90;;;;;;5010885;28;20018;-76
2023/03/22 08:13:49;;;;;;;18.30;3.25;;;10.70;99.90;;;;;;5004253;28;20029;-76
2023/03/22 08:16:15;;;;;;;12.65;2.90;;;10.70;99.90;;;;;;5016830;28;20022;-77
2023/03/22 08:18:41;;;;;;;11.50;3.28;;;10.60;99.90;;;;;;5015586;28;20030;-78
2023/03/22 08:21:07;;;;;;;14.80;2.92;;;10.60;99.90;;;;;;5021003;28;20099;-77
2023/03/22 08:23:32;;;;;;;15.13;3.35;;;10.50;99.90;;;;;;5020448;28;20018;-78
2023/03/22 08:25:58;;;;;;;18.83;3.55;;;10.50;99.90;;;;;;5010009;28;20022;-77
2023/03/22 08:28:23;;;;;;;18.88;3.92;;;10.40;99.90;;;;;;5010260;28;20072;-78
2023/03/22 08:30:50;;;;;;;21.20;3.50;;;10.40;99.90;;;;;;5004791;28;20053;-77
2023/03/22 08:33:16;;;;;;;13.20;2.92;;;10.40;99.90;;;;;;4988344;28;20030;-77
2023/03/22 08:35:43;;;;;;;20.65;3.58;;;10.40;99.90;;;;;;5017052;28;20021;-78
2023/03/22 08:38:09;;;;;;;19.30;3.67;;;10.50;99.90;;;;;;5008587;28;20093;-78
2023/03/22 08:40:35;;;;;;;13.73;3.55;;;10.40;99.90;;;;;;5009446;28;20058;-76
2023/03/22 08:43:01;;;;;;;15.27;3.35;;;10.40;99.90;;;;;;5007664;28;20014;-77
2023/03/22 08:45:27;;;;;;;18.08;3.50;;;10.40;99.90;;;;;;5004327;28;20422;-77
2023/03/22 08:47:53;;;;;;;11.10;3.22;;;10.40;99.90;;;;;;4984869;28;20497;-77
2023/03/22 08:50:18;;;;;;;14.13;3.50;;;10.40;99.90;;;;;;5008990;28;20104;-77
2023/03/22 08:52:44;;;;;;;17.08;3.88;;;10.40;99.90;;;;;;4996480;28;20111;-77
2023/03/22 08:55:10;;;;;;;20.85;4.28;;;10.40;99.90;;;;;;4998398;28;20034;-77
2023/03/22 08:57:36;;;;;;;20.40;3.35;;;10.40;99.90;;;;;;5010263;28;20026;-78
2023/03/22 09:00:05;;;;;;;19.08;3.28;;;10.40;99.90;;;;;;5011017;28;20118;-77
2023/03/22 09:02:31;;;;;;;15.38;3.72;;;10.40;99.90;;;;;;5003791;28;20041;-77
2023/03/22 09:04:57;;;;;;;17.00;3.85;;;10.40;99.90;;;;;;5003999;28;20033;-77
2023/03/22 09:07:23;;;;;;;17.10;3.75;;;10.40;99.90;;;;;;5010895;28;20030;-77
2023/03/22 09:09:49;;;;;;;12.30;3.25;;;10.40;99.90;;;;;;4981716;28;20169;-77
2023/03/22 09:12:15;;;;;;;17.33;3.78;;;10.40;99.90;;;;;;4996737;28;20025;-77
2023/03/22 09:14:40;;;;;;;21.08;3.88;;;10.40;99.90;;;;;;4996137;28;20034;-77
2023/03/22 09:17:06;;;;;;;12.98;3.58;;;10.40;99.90;;;;;;5003389;28;20017;-78
2023/03/22 09:19:32;;;;;;;15.65;3.67;;;10.40;99.90;;;;;;5006865;28;20019;-78
2023/03/22 09:21:57;;;;;;;11.82;3.40;;;10.40;99.90;;;;;;5015846;28;20525;-79
2023/03/22 09:24:23;;;;;;;19.30;3.92;;;10.40;99.90;;;;;;5001936;28;20037;-78
2023/03/22 09:26:50;;;;;;;19.48;3.90;;;10.50;99.90;;;;;;5018790;28;20076;-78
2023/03/22 09:29:16;;;;;;;17.15;3.58;;;10.50;99.90;;;;;;5014555;28;20045;-79
2023/03/22 09:31:42;;;;;;;13.25;3.42;;;10.50;99.90;;;;;;5013840;28;20038;-78
2023/03/22 09:34:08;;;;;;;15.20;3.80;;;10.50;99.90;;;;;;5011767;28;20031;-79
2023/03/22 09:36:33;;;;;;;17.15;4.10;;;10.50;99.90;;;;;;5008416;28;20052;-78
2023/03/22 09:38:59;;;;;;;15.88;3.90;;;10.50;99.90;;;;;;5012416;28;20033;-78
2023/03/22 09:41:44;;;;;;;20.02;4.18;;;10.50;99.90;;;;;;5007748;28;20474;-79
2023/03/22 09:44:35;;;;;;;16.98;3.63;;;10.50;99.90;;;;;;5008462;28;20054;-79
2023/03/22 09:47:04;;;;;;;15.82;3.63;;;10.50;99.90;;;;;;5000518;28;20378;-79
2023/03/22 09:49:38;;;;;;;16.77;4.40;;;10.60;99.90;;;;;;4999872;28;20073;-79
2023/03/22 09:52:12;;;;;;;13.30;3.90;;;10.50;99.90;;;;;;5013046;28;20025;-78
2023/03/22 09:54:40;;;;;;;16.63;3.90;;;10.50;99.90;;;;;;5009633;28;20026;-79
2023/03/22 09:57:32;;;;;;;14.75;3.85;;;10.50;99.90;;;;;;5020555;28;20110;-78
2023/03/22 10:00:17;;;;;;;17.33;4.32;;;10.50;99.90;;;;;;5001277;28;20390;-79
2023/03/22 10:02:53;;;;;;;18.77;4.55;;;10.50;99.90;;;;;;5015440;28;20033;-79
2023/03/22 10:05:28;;;;;;;16.05;4.40;;;10.50;99.90;;;;;;5003725;28;20034;-78
2023/03/22 10:08:31;;;;;;;16.98;4.22;;;10.50;99.90;;;;;;5001923;28;20063;-78
2023/03/22 10:10:58;;;;;;;12.32;3.80;;;10.60;99.90;;;;;;5020182;28;20033;-78
2023/03/22 10:13:41;;;;;;;20.33;4.40;;;10.50;99.90;;;;;;5014597;28;20017;-78
2023/03/22 10:16:12;;;;;;;17.33;4.45;;;10.50;99.90;;;;;;5005459;28;20030;-78
2023/03/22 10:18:43;;;;;;;15.40;4.18;;;10.60;99.90;;;;;;5006797;28;20026;-79
2023/03/22 10:21:14;;;;;;;12.98;3.90;;;10.60;99.90;;;;;;5004402;28;20034;-78
2023/03/22 10:23:57;;;;;;;17.00;4.00;;;10.60;99.90;;;;;;5006124;28;20029;-78
2023/03/22 10:26:35;;;;;;;12.45;3.67;;;10.60;99.90;;;;;;5006219;28;20026;-77
2023/03/22 10:29:23;;;;;;;16.70;4.07;;;10.60;99.90;;;;;;5003337;28;20033;-78
2023/03/22 10:31:49;;;;;;;15.50;3.78;;;10.60;99.90;;;;;;5002408;28;20045;-78
2023/03/22 10:34:26;;;;;;;16.42;3.92;;;10.70;99.90;;;;;;4989353;28;20077;-77
2023/03/22 10:36:54;;;;;;;14.80;3.60;;;10.70;99.90;;;;;;5010256;28;20496;-77
2023/03/22 10:39:34;;;;;;;17.98;4.00;;;10.70;99.90;;;;;;4997070;28;20378;-77
2023/03/22 10:42:03;;;;;;;9.73;3.72;;;10.70;99.90;;;;;;5008967;28;20022;-77
2023/03/22 10:44:34;;;;;;;18.92;4.63;;;10.80;99.90;;;;;;4994832;28;20042;-78
2023/03/22 10:47:06;;;;;;;15.93;3.75;;;10.80;99.90;;;;;;5007409;28;20437;-76
2023/03/22 10:49:36;;;;;;;12.77;3.45;;;10.80;99.90;;;;;;5013669;28;20049;-76
2023/03/22 10:52:15;;;;;;;13.60;3.40;;;10.80;99.90;;;;;;5011637;28;20072;-76
2023/03/22 10:54:41;;;;;;;17.55;3.38;;;10.80;99.90;;;;;;5003289;28;20026;-76
2023/03/22 10:57:07;;;;;;;16.65;3.78;;;10.90;99.90;;;;;;4997309;28;20061;-76
2023/03/22 10:59:47;;;;;;;15.18;3.45;;;11.00;99.90;;;;;;5016805;28;20014;-76
2023/03/22 11:02:49;;;;;;;13.05;3.38;;;11.00;99.90;;;;;;5007930;28;20527;-76
2023/03/22 11:05:23;;;;;;;8.75;3.60;;;11.10;99.90;;;;;;4970915;28;20470;-76
2023/03/22 11:07:48;;;;;;;15.65;3.38;;;11.10;99.90;;;;;;4993654;28;20089;-76
2023/03/22 11:10:21;;;;;;;9.60;3.40;;;11.10;99.90;;;;;;4975969;28;20034;-76
2023/03/22 11:12:50;;;;;;;11.13;3.25;;;11.10;99.90;;;;;;4996700;28;20061;-76
2023/03/22 11:15:28;;;;;;;19.52;4.05;;;11.10;99.90;;;;;;5015992;28;20045;-76
2023/03/22 11:18:15;;;;;;;12.55;3.33;;;11.10;99.90;;;;;;4996772;28;20021;-76
2023/03/22 11:20:51;;;;;;;13.00;3.20;;;11.20;99.90;;;;;;5012523;28;20400;-76
2023/03/22 11:23:20;;;;;;;14.30;3.45;;;11.20;99.90;;;;;;5016041;28;20029;-76
2023/03/22 11:25:48;;;;;;;15.10;3.15;;;11.20;99.90;;;;;;5000764;28;20034;-77
2023/03/22 11:28:48;;;;;;;11.82;3.38;;;11.20;99.90;;;;;;4997895;28;20093;-76
2023/03/22 11:31:16;;;;;;;18.27;3.92;;;11.20;99.90;;;;;;5013640;28;20072;-76
2023/03/22 11:34:00;;;;;;;10.93;3.80;;;11.20;99.90;;;;;;5003267;28;20359;-76
2023/03/22 11:36:27;;;;;;;12.40;3.78;;;11.20;99.90;;;;;;5002790;28;20029;-76
2023/03/22 11:39:01;;;;;;;13.15;3.80;;;11.20;99.90;;;;;;5006114;28;20033;-76
2023/03/22 11:41:33;;;;;;;10.73;3.65;;;11.20;99.90;;;;;;5000705;28;20467;-75
2023/03/22 11:44:05;;;;;;;10.40;3.50;;;11.20;99.90;;;;;;5001815;28;20049;-75
2023/03/22 11:46:32;;;;;;;10.40;3.58;;;11.20;99.90;;;;;;5010414;28;20491;-75
2023/03/22 11:49:04;;;;;;;10.52;3.58;;;11.20;99.90;;;;;;5003608;28;20488;-76
2023/03/22 11:51:34;;;;;;;13.02;3.58;;;11.20;99.90;;;;;;5012300;28;20026;-75
2023/03/22 11:54:26;;;;;;;11.77;3.65;;;11.20;99.90;;;;;;5008409;28;20014;-76
2023/03/22 11:56:57;;;;;;;10.70;3.30;;;11.20;99.90;;;;;;4997665;28;20069;-76
2023/03/22 11:59:29;;;;;;;10.15;3.53;;;11.20;99.90;;;;;;5006697;28;20339;-75
2023/03/22 12:02:31;;;;;;;13.95;3.85;;;11.30;99.90;;;;;;5008376;28;20022;-76
2023/03/22 12:05:22;;;;;;;12.07;3.88;;;11.30;99.90;;;;;;4990293;28;20044;-76
2023/03/22 12:07:54;;;;;;;13.02;4.40;;;11.30;99.90;;;;;;5004034;28;20030;-75
2023/03/22 12:10:28;;;;;;;10.90;4.30;;;11.30;99.90;;;;;;4995145;28;20038;-75
2023/03/22 12:13:13;;;;;;;10.25;3.42;;;11.30;99.90;;;;;;4999288;28;20058;-75
2023/03/22 12:15:47;;;;;;;14.07;4.03;;;11.30;99.90;;;;;;4997706;28;20498;-76
2023/03/22 12:18:29;;;;;;;13.90;4.10;;;11.40;99.90;;;;;;5000438;28;20026;-75
2023/03/22 12:20:57;;;;;;;9.88;3.90;;;11.40;99.90;;;;;;5010480;28;20505;-76
2023/03/22 12:23:26;;;;;;;10.75;3.78;;;11.40;99.90;;;;;;4995026;28;20029;-76
2023/03/22 12:26:01;;;;;;;12.07;3.80;;;11.50;99.90;;;;;;5012001;28;20022;-75
2023/03/22 12:28:56;;;;;;;11.82;4.20;;;11.50;99.90;;;;;;5005482;28;20038;-76
2023/03/22 12:31:30;;;;;;;15.23;4.15;;;11.50;99.90;;;;;;4992532;28;20042;-75
2023/03/22 12:34:01;;;;;;;10.93;3.67;;;11.50;99.90;;;;;;5003215;28;20023;-75
2023/03/22 12:36:55;;;;;;;11.98;4.32;;;11.50;99.90;;;;;;5007616;28;20030;-75
2023/03/22 12:39:47;;;;;;;10.65;3.78;;;11.60;99.90;;;;;;5001435;28;20042;-76
2023/03/22 12:42:26;;;;;;;13.20;4.30;;;11.60;99.90;;;;;;5002125;28;20026;-74
2023/03/22 12:45:00;;;;;;;10.07;3.78;;;11.60;99.90;;;;;;4999613;28;20030;-75
2023/03/22 12:47:40;;;;;;;8.48;4.07;;;11.60;99.90;;;;;;5004380;28;20571;-75
2023/03/22 12:50:24;;;;;;;10.23;4.25;;;11.60;99.90;;;;;;5004249;28;20054;-75
2023/03/22 12:52:53;;;;;;;9.02;3.88;;;11.70;99.90;;;;;;5001039;28;20027;-76
2023/03/22 12:55:36;;;;;;;9.43;3.70;;;11.70;99.90;;;;;;5007533;28;20526;-76